Time;durP1;ratioP1;P1;durP2;ratioP2;P2;SDS_P1;SDS_P2;PMS_P1;PMS_P2;Temp;Humidity;BMP_temperature;BMP_pressure;BME280_temperature;BME280_humidity;BME280_pressure;Samples;Min_cycle;Max_cycle;Signal;HPM_P1;HPM_P2
2023/11/06 00:02:23;;;;;;;2.30;1.70;;;;;;;9.96;85.23;98004.81;130046;1254;114707;-60
2023/11/06 00:05:25;;;;;;;1.40;0.80;;;;;;;9.97;84.90;98009.54;130135;1257;114811;-59
2023/11/06 00:08:29;;;;;;;1.40;1.00;;;;;;;9.97;84.69;98020.05;130250;1253;115076;-59
2023/11/06 00:11:31;;;;;;;0.90;0.70;;;;;;;9.97;84.55;98028.23;130295;1254;115198;-59
2023/11/06 00:14:33;;;;;;;2.80;1.00;;;;;;;9.98;84.41;98032.96;130312;1256;115224;-59
2023/11/06 00:17:39;;;;;;;0.70;0.60;;;;;;;10.00;84.54;98038.00;129923;1275;114827;-59
2023/11/06 00:20:43;;;;;;;1.80;1.00;;;;;;;10.02;84.32;98045.80;130295;1257;114707;-61
2023/11/06 00:23:45;;;;;;;1.60;0.80;;;;;;;10.02;84.23;98049.02;130158;1275;128651;-59
2023/11/06 00:26:47;;;;;;;1.80;0.80;;;;;;;10.01;84.22;98060.17;130117;1256;115211;-60
2023/11/06 00:29:49;;;;;;;1.20;0.70;;;;;;;9.99;84.16;98064.08;130103;1257;114693;-58
2023/11/06 00:32:51;;;;;;;3.00;0.90;;;;;;;9.99;84.27;98071.80;130280;1254;114779;-59
2023/11/06 00:35:54;;;;;;;5.50;0.90;;;;;;;9.98;84.30;98083.62;130289;1251;114837;-56
2023/11/06 00:38:56;;;;;;;0.90;0.60;;;;;;;9.98;84.14;98094.29;130356;1251;114724;-60
2023/11/06 00:41:59;;;;;;;1.40;0.60;;;;;;;9.98;84.34;98095.90;130112;1258;115308;-60
2023/11/06 00:45:01;;;;;;;3.10;1.10;;;;;;;9.99;84.44;98108.35;129840;1262;128268;-58
2023/11/06 00:48:06;;;;;;;1.70;0.70;;;;;;;9.99;84.26;98112.81;130213;1251;114719;-59
2023/11/06 00:51:08;;;;;;;2.60;0.90;;;;;;;9.99;84.43;98117.39;130258;1256;115093;-59
2023/11/06 00:54:11;;;;;;;1.70;0.70;;;;;;;10.00;84.32;98125.70;130149;1256;114747;-58
2023/11/06 00:57:14;;;;;;;3.30;1.30;;;;;;;10.01;84.49;98130.46;130240;1257;114705;-58
2023/11/06 01:00:16;;;;;;;1.00;0.70;;;;;;;10.02;84.26;98134.09;130272;1251;116832;-59
2023/11/06 01:03:19;;;;;;;2.20;0.90;;;;;;;10.05;84.39;98136.75;130151;1251;128968;-57
2023/11/06 01:06:21;;;;;;;2.10;1.00;;;;;;;10.08;84.60;98148.08;130185;1264;114833;-60
2023/11/06 01:09:24;;;;;;;3.40;1.70;;;;;;;10.11;84.28;98155.50;130251;1254;114756;-58
2023/11/06 01:12:27;;;;;;;2.70;1.50;;;;;;;10.15;84.10;98157.29;130188;1255;114737;-60
2023/11/06 01:15:31;;;;;;;1.70;1.00;;;;;;;10.19;84.30;98163.55;130237;1256;114704;-59
2023/11/06 01:18:34;;;;;;;3.20;1.30;;;;;;;10.23;84.03;98164.33;129759;1272;114811;-60
2023/11/06 01:21:36;;;;;;;3.00;0.90;;;;;;;10.27;83.95;98169.70;130154;1257;115309;-59
2023/11/06 01:24:39;;;;;;;1.60;1.00;;;;;;;10.31;83.98;98174.05;130155;1257;114701;-60
2023/11/06 01:27:41;;;;;;;4.80;1.20;;;;;;;10.35;83.58;98176.73;130318;1251;114728;-59
2023/11/06 01:30:44;;;;;;;5.50;1.80;;;;;;;10.40;83.38;98183.52;129845;1251;114817;-61
2023/11/06 01:33:46;;;;;;;1.90;1.00;;;;;;;10.42;83.44;98188.80;130160;1255;115382;-58
2023/11/06 01:36:49;;;;;;;2.00;1.00;;;;;;;10.44;83.11;98198.83;130092;1254;114688;-59
2023/11/06 01:39:52;;;;;;;4.10;1.00;;;;;;;10.47;82.98;98210.06;130107;1254;114847;-59
2023/11/06 01:42:54;;;;;;;6.00;1.30;;;;;;;10.48;82.74;98213.52;130209;1254;114769;-58
2023/11/06 01:45:57;;;;;;;1.70;0.80;;;;;;;10.50;82.55;98222.44;129848;1260;115132;-58
2023/11/06 01:49:00;;;;;;;1.00;0.90;;;;;;;10.51;82.09;98229.54;130180;1253;115161;-60
2023/11/06 01:52:04;;;;;;;4.00;1.30;;;;;;;10.52;81.84;98233.03;130047;1274;115305;-59
2023/11/06 01:55:06;;;;;;;1.50;0.70;;;;;;;10.54;81.76;98238.73;130281;1270;114725;-58
2023/11/06 01:58:12;;;;;;;1.60;1.00;;;;;;;10.56;82.02;98249.80;130211;1274;114796;-60
2023/11/06 02:01:15;;;;;;;5.70;0.80;;;;;;;10.58;81.86;98257.48;130217;1256;115441;-58
2023/11/06 02:04:17;;;;;;;1.80;1.10;;;;;;;10.60;82.09;98263.23;130238;1257;114795;-58
2023/11/06 02:07:19;;;;;;;4.30;1.40;;;;;;;10.59;81.92;98274.35;130243;1270;114702;-59
2023/11/06 02:10:22;;;;;;;3.10;0.90;;;;;;;10.60;81.82;98282.71;130174;1275;114770;-61
2023/11/06 02:13:25;;;;;;;2.50;1.10;;;;;;;10.60;81.78;98293.06;130186;1256;115283;-58
2023/11/06 02:16:30;;;;;;;2.70;2.10;;;;;;;10.59;81.46;98299.31;130173;1255;114718;-60
2023/11/06 02:19:33;;;;;;;0.90;0.80;;;;;;;10.60;81.43;98301.23;130008;1256;115246;-58
2023/11/06 02:22:41;;;;;;;3.10;1.20;;;;;;;10.60;81.32;98297.45;130095;1256;114783;-60
2023/11/06 02:25:44;;;;;;;3.20;1.10;;;;;;;10.60;81.92;98299.29;129789;1251;114814;-61
2023/11/06 02:28:52;;;;;;;2.70;1.60;;;;;;;10.59;81.80;98310.94;130237;1275;114789;-60
2023/11/06 02:31:56;;;;;;;2.90;1.00;;;;;;;10.57;81.78;98317.92;129822;1274;129638;-63
2023/11/06 02:34:59;;;;;;;1.00;0.90;;;;;;;10.56;82.14;98325.16;130237;1257;114705;-63
2023/11/06 02:38:02;;;;;;;3.40;1.00;;;;;;;10.53;82.04;98335.15;130322;1256;114723;-65
2023/11/06 02:41:05;;;;;;;4.20;1.40;;;;;;;10.52;82.11;98338.33;130264;1258;114808;-66
2023/11/06 02:44:07;;;;;;;3.00;1.20;;;;;;;10.49;81.63;98343.89;130205;1254;114771;-58
2023/11/06 02:47:09;;;;;;;5.30;2.20;;;;;;;10.46;81.47;98350.92;130212;1254;114730;-63
2023/11/06 02:50:12;;;;;;;2.80;1.60;;;;;;;10.43;81.10;98356.89;129867;1269;128300;-63
2023/11/06 02:53:14;;;;;;;1.70;1.30;;;;;;;10.40;80.92;98366.22;130162;1275;114803;-64
2023/11/06 02:56:18;;;;;;;4.40;1.80;;;;;;;10.37;81.27;98371.23;130060;1256;114719;-64
2023/11/06 02:59:21;;;;;;;3.00;1.40;;;;;;;10.33;81.16;98380.61;129977;1256;114712;-62
2023/11/06 03:02:24;;;;;;;3.60;1.30;;;;;;;10.28;80.46;98385.89;130094;1257;114744;-64
2023/11/06 03:05:26;;;;;;;4.80;1.20;;;;;;;10.22;80.11;98392.55;130038;1257;115408;-61
2023/11/06 03:08:29;;;;;;;3.50;1.50;;;;;;;10.17;80.16;98395.27;130156;1257;114729;-65
2023/11/06 03:11:31;;;;;;;2.00;1.30;;;;;;;10.13;80.40;98401.52;129715;1254;116472;-64
2023/11/06 03:14:35;;;;;;;2.90;1.20;;;;;;;10.07;79.89;98399.48;130048;1257;114799;-65
2023/11/06 03:17:37;;;;;;;7.00;1.90;;;;;;;10.00;79.70;98398.20;130259;1256;115952;-61
2023/11/06 03:20:40;;;;;;;5.20;1.10;;;;;;;9.94;79.44;98403.33;130152;1253;114707;-66
2023/11/06 03:23:42;;;;;;;2.30;0.80;;;;;;;9.88;79.39;98406.28;130043;1257;114792;-66
2023/11/06 03:26:44;;;;;;;4.50;1.20;;;;;;;9.81;79.48;98415.33;129975;1267;114780;-64
2023/11/06 03:29:46;;;;;;;5.90;2.30;;;;;;;9.73;79.24;98414.88;129591;1275;115170;-66
2023/11/06 03:32:49;;;;;;;2.50;1.10;;;;;;;9.65;78.59;98415.99;130118;1258;114705;-66
2023/11/06 03:35:51;;;;;;;4.70;1.30;;;;;;;9.58;78.73;98425.11;130036;1257;115418;-64
2023/11/06 03:38:54;;;;;;;3.70;1.50;;;;;;;9.51;78.67;98430.62;130039;1259;114761;-65
2023/11/06 03:41:56;;;;;;;4.50;1.30;;;;;;;9.43;78.58;98437.48;129529;1263;114852;-65
2023/11/06 03:44:58;;;;;;;4.60;1.70;;;;;;;9.35;78.56;98444.45;130178;1257;114807;-64
2023/11/06 03:48:01;;;;;;;4.50;1.80;;;;;;;9.29;78.75;98447.23;130115;1257;114734;-58
2023/11/06 03:51:04;;;;;;;5.20;1.30;;;;;;;9.26;78.71;98450.46;130073;1254;114744;-58
2023/11/06 03:54:06;;;;;;;1.80;1.00;;;;;;;9.24;78.85;98459.54;129822;1254;115413;-60
2023/11/06 03:57:09;;;;;;;3.50;1.20;;;;;;;9.21;78.76;98463.48;130172;1256;114692;-58
2023/11/06 04:00:15;;;;;;;2.20;1.30;;;;;;;9.18;78.55;98471.74;130169;1256;115397;-59
2023/11/06 04:03:17;;;;;;;3.40;1.20;;;;;;;9.16;78.63;98473.85;127314;1261;3401440;-60
2023/11/06 04:06:20;;;;;;;4.40;1.70;;;;;;;9.12;78.52;98478.56;130124;1275;114689;-62
2023/11/06 04:09:22;;;;;;;5.10;2.30;;;;;;;9.08;78.59;98481.55;130164;1254;115305;-59
2023/11/06 04:12:25;;;;;;;8.40;1.80;;;;;;;9.02;78.51;98486.73;130087;1257;114737;-61
2023/11/06 04:15:27;;;;;;;3.50;1.60;;;;;;;8.98;78.45;98485.29;130100;1256;114728;-55
2023/11/06 04:18:29;;;;;;;1.90;1.20;;;;;;;8.94;78.67;98486.97;130060;1256;114722;-57
2023/11/06 04:21:32;;;;;;;6.30;1.90;;;;;;;8.89;78.70;98489.46;130015;1257;115043;-57
2023/11/06 04:24:35;;;;;;;4.40;1.80;;;;;;;8.86;78.80;98497.85;130122;1254;115427;-58
2023/11/06 04:27:37;;;;;;;3.50;2.00;;;;;;;8.84;78.53;98502.66;130047;1275;115231;-60
2023/11/06 04:30:39;;;;;;;3.90;2.00;;;;;;;8.83;78.67;98507.02;130156;1256;114715;-59
2023/11/06 04:33:42;;;;;;;3.50;1.50;;;;;;;8.82;78.72;98507.60;130061;1270;114750;-58
2023/11/06 04:36:44;;;;;;;4.10;1.20;;;;;;;8.83;78.77;98514.48;130172;1275;114767;-61
2023/11/06 04:39:47;;;;;;;4.70;2.10;;;;;;;8.84;78.78;98517.65;129657;1257;114876;-59
2023/11/06 04:42:49;;;;;;;6.00;2.10;;;;;;;8.82;78.73;98526.14;130016;1257;114787;-60
2023/11/06 04:45:51;;;;;;;5.90;2.40;;;;;;;8.79;78.61;98531.67;130096;1257;115349;-59
2023/11/06 04:48:54;;;;;;;4.10;2.00;;;;;;;8.75;78.67;98540.49;129849;1254;115387;-60
2023/11/06 04:51:57;;;;;;;3.70;1.50;;;;;;;8.71;78.81;98544.01;129951;1259;114711;-61
2023/11/06 04:54:59;;;;;;;5.50;2.30;;;;;;;8.66;78.75;98545.38;129973;1259;114780;-59
2023/11/06 04:58:02;;;;;;;6.20;2.40;;;;;;;8.61;78.71;98554.42;129759;1259;114795;-59
2023/11/06 05:01:06;;;;;;;5.30;1.50;;;;;;;8.57;78.70;98559.55;129938;1258;114769;-62
2023/11/06 05:04:09;;;;;;;5.90;1.70;;;;;;;8.51;78.79;98561.92;130028;1258;115218;-58
2023/11/06 05:07:12;;;;;;;5.50;2.30;;;;;;;8.46;78.64;98570.06;129978;1260;114748;-58
2023/11/06 05:10:14;;;;;;;4.90;2.10;;;;;;;8.40;78.75;98573.27;129945;1259;114722;-58
2023/11/06 05:13:17;;;;;;;3.20;1.60;;;;;;;8.34;78.69;98575.26;129578;1262;114935;-60
2023/11/06 05:16:20;;;;;;;7.70;2.20;;;;;;;8.29;78.88;98577.09;129913;1275;114671;-61
2023/11/06 05:19:22;;;;;;;3.80;1.80;;;;;;;8.24;79.15;98584.33;130025;1274;114797;-63
2023/11/06 05:22:25;;;;;;;3.20;2.00;;;;;;;8.20;79.16;98586.04;130042;1254;115297;-61
2023/11/06 05:25:27;;;;;;;5.70;1.70;;;;;;;8.15;79.38;98587.95;129958;1253;115146;-60
2023/11/06 05:28:30;;;;;;;8.00;1.90;;;;;;;8.11;79.48;98595.00;130050;1269;114712;-63
2023/11/06 05:31:33;;;;;;;3.60;1.60;;;;;;;8.06;79.78;98601.54;130046;1259;114779;-58
2023/11/06 05:34:35;;;;;;;6.20;1.50;;;;;;;8.02;80.23;98611.07;129984;1269;114778;-58
2023/11/06 05:37:40;;;;;;;5.20;1.50;;;;;;;7.97;79.86;98615.84;129788;1276;114872;-61
2023/11/06 05:40:42;;;;;;;3.60;1.60;;;;;;;7.92;80.27;98619.48;129968;1276;128502;-61
2023/11/06 05:43:44;;;;;;;3.30;1.70;;;;;;;7.90;80.42;98621.77;129921;1275;115110;-59
2023/11/06 05:46:46;;;;;;;6.20;2.60;;;;;;;7.89;80.63;98624.91;130181;1258;116315;-60
2023/11/06 05:49:49;;;;;;;3.70;2.00;;;;;;;7.87;81.11;98635.29;130258;1258;114696;-58
2023/11/06 05:52:51;;;;;;;7.60;1.60;;;;;;;7.86;80.95;98639.29;130191;1255;115163;-58
2023/11/06 05:55:54;;;;;;;5.80;2.10;;;;;;;7.85;81.28;98644.14;130277;1256;114702;-60
2023/11/06 05:58:56;;;;;;;3.50;1.80;;;;;;;7.85;81.18;98650.02;130220;1260;115624;-60
2023/11/06 06:01:58;;;;;;;5.90;2.00;;;;;;;7.84;81.44;98653.97;130008;1256;128883;-58
2023/11/06 06:05:00;;;;;;;4.10;2.00;;;;;;;7.84;81.63;98655.92;130110;1251;114747;-59
2023/11/06 06:08:03;;;;;;;4.30;2.00;;;;;;;7.85;81.39;98660.70;130230;1256;115262;-58
2023/11/06 06:11:05;;;;;;;8.80;2.20;;;;;;;7.84;81.44;98665.70;129902;1260;114873;-59
2023/11/06 06:14:07;;;;;;;5.10;1.90;;;;;;;7.85;81.75;98673.13;130199;1253;114725;-58
2023/11/06 06:17:10;;;;;;;2.60;1.80;;;;;;;7.86;81.99;98682.86;130289;1256;114779;-58
2023/11/06 06:20:14;;;;;;;4.10;1.70;;;;;;;7.87;82.23;98685.93;130135;1256;114795;-58
2023/11/06 06:23:16;;;;;;;2.50;1.90;;;;;;;7.90;82.43;98690.20;129721;1256;128431;-60
2023/11/06 06:26:18;;;;;;;4.70;2.30;;;;;;;7.95;82.40;98695.61;129992;1254;115167;-60
2023/11/06 06:29:20;;;;;;;7.00;4.20;;;;;;;7.99;82.50;98704.02;130242;1256;115059;-60
2023/11/06 06:32:22;;;;;;;24.80;13.40;;;;;;;8.03;82.50;98708.42;130057;1275;115359;-58
2023/11/06 06:35:24;;;;;;;17.20;9.10;;;;;;;8.07;82.57;98718.83;130098;1275;114734;-59
2023/11/06 06:38:26;;;;;;;6.70;2.90;;;;;;;8.10;82.59;98730.73;130144;1275;114703;-58
2023/11/06 06:41:28;;;;;;;3.80;1.90;;;;;;;8.12;82.54;98738.06;130241;1266;115108;-59
2023/11/06 06:44:31;;;;;;;6.30;1.80;;;;;;;8.14;82.58;98744.88;130140;1275;115078;-60
2023/11/06 06:47:33;;;;;;;2.80;1.50;;;;;;;8.15;82.47;98749.77;130073;1275;142213;-61
2023/11/06 06:50:35;;;;;;;3.50;1.60;;;;;;;8.17;82.42;98764.95;129842;1259;115172;-60
2023/11/06 06:53:39;;;;;;;7.90;2.10;;;;;;;8.20;82.53;98772.52;130079;1275;114689;-60
2023/11/06 06:56:41;;;;;;;4.00;1.70;;;;;;;8.28;82.75;98777.39;130217;1256;115177;-59
2023/11/06 06:59:43;;;;;;;3.90;1.70;;;;;;;8.37;82.78;98782.88;130093;1275;114727;-60
2023/11/06 07:02:45;;;;;;;3.50;2.20;;;;;;;8.46;83.06;98791.02;130112;1275;114711;-59
2023/11/06 07:05:48;;;;;;;4.80;1.90;;;;;;;8.55;82.83;98790.63;130047;1257;129091;-58
2023/11/06 07:08:55;;;;;;;4.40;1.80;;;;;;;8.64;82.81;98793.79;130077;1257;115097;-59
2023/11/06 07:11:58;;;;;;;3.80;2.40;;;;;;;8.75;83.00;98794.31;129789;1257;114856;-58
2023/11/06 07:15:01;;;;;;;4.60;2.00;;;;;;;8.86;83.01;98797.52;130114;1275;114743;-60
2023/11/06 07:18:06;;;;;;;6.60;2.00;;;;;;;8.93;82.85;98800.60;130021;1275;115045;-59
2023/11/06 07:21:08;;;;;;;7.30;2.10;;;;;;;9.02;82.90;98805.14;129785;1259;128267;-58
2023/11/06 07:24:11;;;;;;;2.90;1.70;;;;;;;9.08;82.90;98808.52;130092;1258;115239;-58
2023/11/06 07:27:13;;;;;;;6.80;2.00;;;;;;;9.21;82.91;98810.64;130032;1257;114742;-58
2023/11/06 07:30:16;;;;;;;4.40;2.00;;;;;;;9.38;82.76;98810.42;130315;1259;115205;-59
2023/11/06 07:33:18;;;;;;;4.90;2.30;;;;;;;9.57;82.98;98812.81;129895;1260;114777;-60
2023/11/06 07:36:21;;;;;;;5.40;1.80;;;;;;;9.73;82.53;98818.84;130063;1259;114716;-59
2023/11/06 07:39:23;;;;;;;5.90;1.70;;;;;;;9.88;82.67;98822.64;130061;1263;114710;-58
2023/11/06 07:42:25;;;;;;;2.90;1.90;;;;;;;10.09;82.56;98829.16;130022;1260;114684;-58
2023/11/06 07:45:27;;;;;;;5.60;2.00;;;;;;;10.26;82.19;98828.33;129918;1276;115268;-58
2023/11/06 07:48:30;;;;;;;4.50;1.70;;;;;;;10.48;82.14;98828.53;129979;1267;114827;-58
2023/11/06 07:51:33;;;;;;;3.30;1.50;;;;;;;10.81;82.23;98833.33;130032;1259;114727;-57
2023/11/06 07:54:42;;;;;;;4.30;2.00;;;;;;;11.12;81.73;98831.55;130107;1254;114788;-58
2023/11/06 07:57:44;;;;;;;4.40;1.40;;;;;;;11.33;81.25;98832.80;129823;1275;127859;-58
2023/11/06 08:00:47;;;;;;;4.50;1.70;;;;;;;11.51;80.61;98833.93;130184;1275;114711;-57
2023/11/06 08:03:50;;;;;;;3.90;1.60;;;;;;;11.72;80.55;98834.14;130043;1256;114752;-58
2023/11/06 08:06:52;;;;;;;2.00;1.20;;;;;;;11.89;80.03;98837.06;130113;1259;115532;-59
2023/11/06 08:09:54;;;;;;;5.80;1.60;;;;;;;12.07;79.93;98845.40;130077;1255;114805;-58
2023/11/06 08:12:56;;;;;;;3.30;1.40;;;;;;;12.21;79.24;98844.79;130105;1259;114769;-59
2023/11/06 08:15:58;;;;;;;1.70;1.40;;;;;;;12.34;78.73;98848.46;130111;1256;114719;-58
2023/11/06 08:19:02;;;;;;;7.40;3.40;;;;;;;12.46;78.31;98854.29;129750;1270;128705;-57
2023/11/06 08:22:07;;;;;;;2.90;1.50;;;;;;;12.58;78.07;98854.77;129957;1259;115150;-57
2023/11/06 08:25:14;;;;;;;5.20;1.30;;;;;;;12.66;77.49;98866.80;129782;1263;114891;-59
2023/11/06 08:28:16;;;;;;;1.90;1.00;;;;;;;12.75;77.21;98874.67;130010;1267;114744;-58
2023/11/06 08:31:18;;;;;;;13.20;4.00;;;;;;;12.83;76.89;98877.05;130188;1257;114798;-57
2023/11/06 08:34:21;;;;;;;13.60;3.90;;;;;;;12.91;76.73;98883.63;130337;1257;114798;-58
2023/11/06 08:37:28;;;;;;;5.10;2.50;;;;;;;12.99;76.64;98894.59;129908;1274;128056;-58
2023/11/06 08:40:31;;;;;;;22.90;7.80;;;;;;;13.07;76.25;98899.89;130176;1275;115211;-59
2023/11/06 08:43:33;;;;;;;22.00;7.40;;;;;;;13.16;76.00;98904.86;130263;1257;114707;-58
2023/11/06 08:46:35;;;;;;;11.00;3.60;;;;;;;13.28;76.07;98901.40;129917;1260;114855;-58
2023/11/06 08:49:38;;;;;;;20.20;7.40;;;;;;;13.39;75.96;98900.99;130271;1256;114805;-58
2023/11/06 08:52:40;;;;;;;27.00;9.40;;;;;;;13.51;75.79;98911.12;130193;1264;115272;-57
2023/11/06 08:55:42;;;;;;;11.40;4.40;;;;;;;13.60;75.33;98913.59;130319;1264;114708;-57
2023/11/06 08:58:44;;;;;;;6.60;3.40;;;;;;;13.67;75.28;98923.39;130165;1265;128599;-57
2023/11/06 09:01:53;;;;;;;9.50;3.40;;;;;;;13.72;74.69;98933.63;130087;1266;114805;-58
2023/11/06 09:04:55;;;;;;;11.90;4.40;;;;;;;13.75;74.54;98938.73;129994;1261;114840;-57
2023/11/06 09:07:58;;;;;;;7.60;2.10;;;;;;;13.77;74.23;98948.05;130194;1273;115518;-57
2023/11/06 09:11:01;;;;;;;4.70;2.10;;;;;;;13.82;73.81;98952.70;130017;1254;115386;-57
2023/11/06 09:14:03;;;;;;;3.70;2.60;;;;;;;13.86;73.91;98962.54;130391;1271;114764;-58
2023/11/06 09:17:09;;;;;;;7.40;2.00;;;;;;;13.90;73.31;98962.09;130166;1266;128802;-58
2023/11/06 09:20:12;;;;;;;4.10;1.90;;;;;;;13.91;73.00;98967.14;129940;1260;114780;-57
2023/11/06 09:23:14;;;;;;;6.70;1.90;;;;;;;13.92;73.00;98971.36;130068;1275;115084;-57
2023/11/06 09:26:19;;;;;;;5.90;1.50;;;;;;;13.89;72.84;98972.88;130132;1257;114724;-57
2023/11/06 09:29:21;;;;;;;8.10;1.80;;;;;;;13.89;72.65;98974.04;129819;1275;114805;-57
2023/11/06 09:32:23;;;;;;;3.80;1.40;;;;;;;13.87;72.35;98985.51;130081;1273;115378;-57
2023/11/06 09:35:25;;;;;;;4.30;1.20;;;;;;;13.86;72.22;98990.91;130063;1257;115083;-57
2023/11/06 09:38:28;;;;;;;3.80;2.00;;;;;;;13.83;71.89;98994.21;130172;1257;114895;-57
2023/11/06 09:41:31;;;;;;;8.20;2.70;;;;;;;13.78;71.91;98997.10;129940;1266;116330;-57
2023/11/06 09:44:35;;;;;;;4.60;1.80;;;;;;;13.76;71.75;98996.91;130085;1259;115189;-58
2023/11/06 09:47:44;;;;;;;6.10;1.70;;;;;;;13.72;71.69;98997.48;130202;1266;114703;-58
2023/11/06 09:50:48;;;;;;;7.10;1.50;;;;;;;13.65;71.35;99001.41;130025;1255;129093;-58
2023/11/06 09:53:51;;;;;;;3.70;1.20;;;;;;;13.62;71.33;99000.45;130156;1266;115035;-58
2023/11/06 09:56:54;;;;;;;1.80;1.20;;;;;;;13.60;71.41;99005.45;130117;1257;114756;-59
2023/11/06 09:59:57;;;;;;;1.80;1.10;;;;;;;13.61;71.37;99002.70;130011;1257;115135;-57
2023/11/06 10:02:59;;;;;;;4.70;1.80;;;;;;;13.62;71.30;99000.64;130159;1257;114693;-57
2023/11/06 10:06:02;;;;;;;3.70;1.80;;;;;;;13.69;71.55;99003.31;130056;1260;114731;-57
2023/11/06 10:09:19;;;;;;;3.70;2.10;;;;;;;13.75;71.18;99004.98;130125;1266;117083;-59
2023/11/06 10:12:21;;;;;;;5.60;2.20;;;;;;;13.85;71.38;99004.81;130169;1256;115151;-58
2023/11/06 10:15:25;;;;;;;3.70;1.80;;;;;;;13.94;71.38;99006.24;129989;1257;114696;-57
2023/11/06 10:18:27;;;;;;;4.20;1.50;;;;;;;14.03;71.09;99004.23;130119;1264;114793;-57
2023/11/06 10:21:30;;;;;;;7.50;2.20;;;;;;;14.15;71.14;99007.17;130219;1257;114702;-57
2023/11/06 10:24:48;;;;;;;3.10;1.90;;;;;;;14.28;70.85;99003.91;130278;1264;114754;-58
2023/11/06 10:27:50;;;;;;;5.80;1.50;;;;;;;14.39;70.30;99007.59;130192;1264;129077;-58
2023/11/06 10:30:52;;;;;;;4.30;1.40;;;;;;;14.47;70.32;99010.71;130099;1261;114748;-57
2023/11/06 10:33:55;;;;;;;6.10;2.00;;;;;;;14.53;69.81;99006.90;130254;1254;114754;-60
2023/11/06 10:37:09;;;;;;;6.30;2.20;;;;;;;14.61;69.92;99004.48;130301;1257;114615;-59
2023/11/06 10:40:14;;;;;;;4.40;1.80;;;;;;;14.69;69.44;99012.94;130158;1259;115378;-57
2023/11/06 10:43:17;;;;;;;7.30;2.00;;;;;;;14.71;70.04;99013.66;130264;1257;114708;-57
2023/11/06 10:46:19;;;;;;;4.20;1.60;;;;;;;14.78;70.67;99013.23;130411;1264;128951;-58
2023/11/06 10:49:42;;;;;;;4.40;1.50;;;;;;;14.85;70.65;99011.37;130035;1259;114794;-57
2023/11/06 10:52:49;;;;;;;3.10;1.30;;;;;;;14.92;70.97;99013.66;130135;1257;114933;-58
2023/11/06 10:55:52;;;;;;;3.60;1.60;;;;;;;14.95;70.30;99015.02;129830;1261;114900;-58
2023/11/06 10:58:57;;;;;;;3.80;1.90;;;;;;;14.96;69.60;99019.81;130269;1257;114794;-58
2023/11/06 11:01:59;;;;;;;4.60;2.00;;;;;;;14.97;69.49;99025.09;129994;1275;129546;-58
2023/11/06 11:05:02;;;;;;;6.00;1.40;;;;;;;14.96;69.75;99026.08;130172;1275;114658;-58
2023/11/06 11:08:04;;;;;;;3.80;1.20;;;;;;;14.92;69.59;99030.69;130345;1275;114722;-60
2023/11/06 11:11:08;;;;;;;3.20;1.00;;;;;;;14.88;69.64;99038.61;130209;1267;115112;-59
2023/11/06 11:14:12;;;;;;;5.20;1.00;;;;;;;14.93;69.37;99038.42;130162;1256;114718;-59
2023/11/06 11:17:14;;;;;;;3.50;1.50;;;;;;;15.05;69.54;99041.13;129819;1263;114834;-58
2023/11/06 11:20:17;;;;;;;4.10;1.60;;;;;;;15.22;68.91;99047.86;130189;1274;114731;-59
2023/11/06 11:23:41;;;;;;;11.20;2.60;;;;;;;15.36;68.40;99054.23;130114;1275;114775;-58
2023/11/06 11:27:10;;;;;;;2.80;1.40;;;;;;;15.47;67.72;99061.96;129804;1261;114741;-58
2023/11/06 11:30:12;;;;;;;7.10;2.90;;;;;;;15.59;67.27;99052.85;129711;1266;114898;-59
2023/11/06 11:33:55;;;;;;;4.50;1.70;;;;;;;15.64;67.31;99060.43;130136;1258;114721;-57
2023/11/06 11:36:58;;;;;;;2.40;1.50;;;;;;;15.67;67.07;99057.52;129793;1260;128419;-57
2023/11/06 11:40:02;;;;;;;4.60;1.40;;;;;;;15.72;66.74;99061.92;130052;1257;114775;-57
2023/11/06 11:43:23;;;;;;;;;;;;;;;15.75;66.14;99073.14;130189;1275;114731;-58
2023/11/06 11:46:37;;;;;;;2.80;1.30;;;;;;;15.75;65.90;99072.52;129816;1270;114733;-58
2023/11/06 11:49:51;;;;;;;5.80;1.70;;;;;;;15.75;66.23;99075.32;129759;1272;114865;-57
2023/11/06 11:52:54;;;;;;;2.60;1.70;;;;;;;15.76;66.15;99080.49;129878;1261;127755;-57
2023/11/06 11:55:56;;;;;;;1.80;1.30;;;;;;;15.73;66.03;99087.22;130036;1266;115087;-57
2023/11/06 11:58:59;;;;;;;4.20;1.80;;;;;;;15.65;65.71;99091.02;130068;1267;114855;-57
2023/11/06 12:02:01;;;;;;;2.80;1.70;;;;;;;15.53;65.63;99088.31;130275;1256;114804;-57
2023/11/06 12:05:17;;;;;;;7.10;1.90;;;;;;;15.45;65.57;99094.95;130066;1258;114748;-58
2023/11/06 12:08:21;;;;;;;3.80;2.10;;;;;;;15.40;66.19;99095.98;129702;1257;114842;-58
2023/11/06 12:11:23;;;;;;;3.60;1.60;;;;;;;15.38;66.81;99089.84;129776;1274;128098;-57
2023/11/06 12:14:30;;;;;;;6.00;1.60;;;;;;;15.36;67.16;99092.54;130031;1267;114917;-58
2023/11/06 12:17:35;;;;;;;4.10;2.00;;;;;;;15.35;66.97;99096.56;129931;1257;114761;-57
2023/11/06 12:20:37;;;;;;;3.10;1.70;;;;;;;15.37;67.11;99098.41;129945;1264;114771;-57
2023/11/06 12:23:40;;;;;;;3.00;1.60;;;;;;;15.30;66.99;99103.64;130252;1257;114734;-57
2023/11/06 12:26:52;;;;;;;4.80;2.00;;;;;;;15.21;66.45;99111.81;130219;1258;114773;-57
2023/11/06 12:30:06;;;;;;;3.20;1.70;;;;;;;15.11;66.59;99117.37;129832;1275;115255;-57
2023/11/06 12:33:23;;;;;;;4.00;1.40;;;;;;;14.98;66.29;99120.66;129939;1260;115361;-57
2023/11/06 12:36:26;;;;;;;1.60;1.00;;;;;;;14.85;66.57;99124.84;130155;1251;114770;-56
2023/11/06 12:39:33;;;;;;;6.00;1.60;;;;;;;14.75;66.39;99130.03;130202;1275;114692;-56
2023/11/06 12:42:37;;;;;;;1.80;1.20;;;;;;;14.66;66.48;99134.88;129807;1262;127729;-57
2023/11/06 12:45:40;;;;;;;2.20;1.20;;;;;;;14.58;66.22;99138.96;130073;1275;114751;-57
2023/11/06 12:48:43;;;;;;;4.00;1.50;;;;;;;14.52;66.10;99137.48;129955;1254;114873;-57
2023/11/06 12:51:51;;;;;;;2.00;0.70;;;;;;;14.47;65.68;99140.21;130151;1256;114865;-57
2023/11/06 12:54:53;;;;;;;1.70;0.70;;;;;;;14.41;65.60;99152.56;129740;1275;114768;-57
2023/11/06 12:58:09;;;;;;;1.30;0.70;;;;;;;14.34;65.29;99154.45;130016;1275;114718;-57
2023/11/06 13:01:20;;;;;;;3.50;1.00;;;;;;;14.25;65.21;99164.12;129906;1270;115296;-57
2023/11/06 13:04:26;;;;;;;3.50;1.10;;;;;;;14.23;65.86;99162.53;129956;1266;115253;-57
2023/11/06 13:07:30;;;;;;;2.00;0.70;;;;;;;14.24;65.96;99172.12;129919;1261;114896;-57
2023/11/06 13:10:32;;;;;;;2.60;0.70;;;;;;;14.26;65.88;99174.13;130110;1260;114773;-57
2023/11/06 13:13:34;;;;;;;3.50;1.00;;;;;;;14.24;65.79;99179.46;129995;1258;114718;-58
2023/11/06 13:16:37;;;;;;;2.10;0.90;;;;;;;14.24;65.89;99186.11;130107;1254;115298;-57
2023/11/06 13:19:39;;;;;;;2.80;1.00;;;;;;;14.24;66.05;99186.89;129789;1262;114742;-57
2023/11/06 13:22:41;;;;;;;1.40;0.90;;;;;;;14.22;65.82;99190.29;130239;1257;115297;-57
2023/11/06 13:25:44;;;;;;;2.50;1.20;;;;;;;14.21;65.82;99194.88;130221;1275;114831;-57
2023/11/06 13:28:49;;;;;;;5.70;1.20;;;;;;;14.21;65.83;99204.04;130180;1257;114805;-56
2023/11/06 13:31:52;;;;;;;3.20;1.50;;;;;;;14.17;65.65;99203.96;130016;1262;114852;-55
2023/11/06 13:34:54;;;;;;;1.10;0.80;;;;;;;14.13;65.77;99207.86;130194;1264;114805;-57
2023/11/06 13:37:56;;;;;;;1.40;1.00;;;;;;;14.09;65.71;99210.70;130191;1265;114699;-56
2023/11/06 13:40:59;;;;;;;2.30;1.40;;;;;;;14.05;65.92;99213.93;130167;1267;114815;-57
2023/11/06 13:44:01;;;;;;;2.20;1.30;;;;;;;14.00;65.68;99217.59;129907;1256;114871;-57
2023/11/06 13:47:04;;;;;;;3.30;1.40;;;;;;;13.91;65.29;99218.45;130039;1256;114824;-58
2023/11/06 13:50:21;;;;;;;3.00;1.30;;;;;;;13.82;65.62;99231.21;130169;1255;114810;-57
2023/11/06 13:53:24;;;;;;;3.10;1.80;;;;;;;13.73;65.67;99233.21;129630;1275;129661;-57
2023/11/06 13:56:32;;;;;;;9.10;2.70;;;;;;;13.63;65.74;99240.23;130030;1265;114795;-57
2023/11/06 13:59:35;;;;;;;4.80;2.00;;;;;;;13.52;65.61;99247.73;130249;1267;114881;-56
2023/11/06 14:02:37;;;;;;;5.30;2.70;;;;;;;13.42;65.71;99250.67;130217;1265;114725;-55
2023/11/06 14:05:45;;;;;;;3.00;1.50;;;;;;;13.30;65.60;99251.00;130125;1275;114843;-56
2023/11/06 14:08:52;;;;;;;5.30;1.30;;;;;;;13.19;65.56;99260.27;130156;1268;128677;-55